Time;durP1;ratioP1;P1;durP2;ratioP2;P2;SDS_P1;SDS_P2;PMS_P1;PMS_P2;Temp;Humidity;BMP_temperature;BMP_pressure;BME280_temperature;BME280_humidity;BME280_pressure;Samples;Min_cycle;Max_cycle;Signal;HPM_P1;HPM_P2
2023/05/26 00:00:09;;;;;;;12.10;3.45;;;;;;;20.56;41.55;102802.13;5020432;28;20047;-70
2023/05/26 00:02:39;;;;;;;10.75;2.88;;;;;;;20.53;41.71;102799.66;5020639;28;20041;-69
2023/05/26 00:05:08;;;;;;;9.43;3.47;;;;;;;20.54;41.68;102800.53;5002423;28;20038;-70
2023/05/26 00:07:38;;;;;;;11.75;3.08;;;;;;;20.53;41.32;102798.81;5018425;28;20112;-71
2023/05/26 00:10:04;;;;;;;8.18;2.58;;;;;;;20.53;41.33;102799.66;5013772;28;20104;-71
2023/05/26 00:12:29;;;;;;;9.25;2.75;;;;;;;20.54;41.38;102803.19;5004518;28;20176;-70
2023/05/26 00:14:54;;;;;;;9.00;2.80;;;;;;;20.53;41.42;102802.31;5012121;28;20064;-70
2023/05/26 00:17:20;;;;;;;7.80;3.10;;;;;;;20.52;41.57;102800.63;5021503;28;20426;-72
2023/05/26 00:19:48;;;;;;;7.60;2.40;;;;;;;20.51;41.74;102811.31;5009418;28;20132;-70
2023/05/26 00:22:15;;;;;;;9.55;3.25;;;;;;;20.52;41.46;102811.22;5015242;28;20029;-71
2023/05/26 00:24:41;;;;;;;9.35;2.95;;;;;;;20.50;41.33;102812.25;5013235;28;20037;-71
2023/05/26 00:27:06;;;;;;;7.57;2.92;;;;;;;20.48;41.42;102818.47;5023486;28;20035;-70
2023/05/26 00:29:33;;;;;;;8.70;3.00;;;;;;;20.48;41.39;102815.84;5003654;28;20048;-70
2023/05/26 00:31:58;;;;;;;10.90;2.80;;;;;;;20.50;41.29;102814.91;5011857;28;20087;-70
2023/05/26 00:34:24;;;;;;;9.33;3.40;;;;;;;20.48;41.48;102820.28;5023352;28;20033;-70
2023/05/26 00:36:49;;;;;;;9.80;3.60;;;;;;;20.48;41.20;102815.00;5010510;28;20255;-71
2023/05/26 00:39:14;;;;;;;10.27;2.88;;;;;;;20.48;41.51;102825.59;5022139;28;20029;-71
2023/05/26 00:41:40;;;;;;;9.77;2.90;;;;;;;20.44;41.20;102816.97;5023678;28;20038;-70
2023/05/26 00:44:05;;;;;;;10.35;3.28;;;;;;;20.45;41.36;102825.78;5012867;28;20497;-71
2023/05/26 00:46:31;;;;;;;8.07;2.88;;;;;;;20.46;41.13;102819.53;5004026;28;20095;-71
2023/05/26 00:48:56;;;;;;;9.32;3.35;;;;;;;20.46;41.11;102824.84;5019318;28;20030;-70
2023/05/26 00:51:22;;;;;;;10.27;3.20;;;;;;;20.45;41.19;102820.47;5016518;28;20090;-70
2023/05/26 00:53:48;;;;;;;10.32;2.72;;;;;;;20.43;41.10;102823.22;5013790;28;20037;-71
2023/05/26 00:56:15;;;;;;;9.75;3.30;;;;;;;20.45;41.14;102825.78;5012419;28;20072;-72
2023/05/26 00:58:42;;;;;;;11.52;3.22;;;;;;;20.44;41.12;102821.41;5021900;28;20036;-71
2023/05/26 01:01:08;;;;;;;10.90;3.03;;;;;;;20.44;41.26;102829.34;5015331;28;20079;-70
2023/05/26 01:03:34;;;;;;;10.60;2.85;;;;;;;20.42;41.14;102820.66;5004103;28;20038;-71
2023/05/26 01:06:00;;;;;;;6.63;2.55;;;;;;;20.41;41.49;102818.94;5003981;28;20433;-69
2023/05/26 01:08:25;;;;;;;8.70;2.85;;;;;;;20.39;41.41;102819.03;5004124;28;20033;-71
2023/05/26 01:10:55;;;;;;;9.07;2.75;;;;;;;20.42;41.20;102828.59;5006667;28;20034;-71
2023/05/26 01:13:27;;;;;;;7.60;2.72;;;;;;;20.40;41.11;102833.16;5005233;28;20034;-69
2023/05/26 01:16:02;;;;;;;9.80;3.30;;;;;;;20.40;41.19;102825.19;5014609;28;20398;-70
2023/05/26 01:18:36;;;;;;;9.55;2.88;;;;;;;20.39;40.93;102823.47;5013063;28;20046;-71
2023/05/26 01:21:02;;;;;;;;;;;;;;;20.43;40.99;102833.81;5023072;28;20045;-70
2023/05/26 01:23:48;;;;;;;10.97;3.43;;;;;;;20.44;41.03;102832.00;5022893;28;19921;-71
2023/05/26 01:26:41;;;;;;;10.50;3.03;;;;;;;20.40;40.97;102834.00;5012059;28;20026;-72
2023/05/26 01:29:15;;;;;;;11.63;2.97;;;;;;;20.38;41.02;102830.59;5003460;28;20096;-71
2023/05/26 01:31:40;;;;;;;11.82;2.88;;;;;;;20.39;40.97;102834.06;5003525;28;20030;-71
2023/05/26 01:34:06;;;;;;;9.70;3.05;;;;;;;20.34;41.13;102826.41;5006592;28;20551;-71
2023/05/26 01:36:33;;;;;;;7.78;2.30;;;;;;;20.36;41.10;102832.47;5020592;28;20056;-71
2023/05/26 01:38:59;;;;;;;8.18;2.78;;;;;;;20.35;41.26;102830.78;5003144;28;20041;-69
2023/05/26 01:41:42;;;;;;;10.82;3.10;;;;;;;20.30;41.13;102833.69;5009329;28;20034;-70
2023/05/26 01:44:26;;;;;;;10.43;3.50;;;;;;;20.34;41.19;102842.28;5001481;28;20092;-70
2023/05/26 01:46:52;;;;;;;10.95;2.92;;;;;;;20.35;41.20;102835.22;5013013;28;20069;-70
2023/05/26 01:49:22;;;;;;;10.35;3.17;;;;;;;20.32;40.81;102832.75;5009178;28;20065;-70
2023/05/26 01:51:56;;;;;;;10.80;3.17;;;;;;;20.30;41.09;102836.34;5022720;28;20124;-71
2023/05/26 01:54:24;;;;;;;12.73;3.13;;;;;;;20.31;40.95;102829.22;5014391;28;20034;-72
2023/05/26 01:56:52;;;;;;;10.73;3.15;;;;;;;20.30;41.00;102835.50;5005033;28;20487;-71
2023/05/26 01:59:19;;;;;;;11.57;3.05;;;;;;;20.30;41.17;102836.34;5017138;28;20037;-71
2023/05/26 02:01:45;;;;;;;8.98;2.78;;;;;;;20.32;40.95;102835.41;5013777;28;20394;-70
2023/05/26 02:04:11;;;;;;;9.55;2.95;;;;;;;20.31;40.94;102839.81;5008312;28;20033;-71
2023/05/26 02:06:37;;;;;;;7.85;2.50;;;;;;;20.28;40.88;102835.59;5006002;28;20026;-71
2023/05/26 02:09:03;;;;;;;9.30;2.95;;;;;;;20.30;40.84;102844.28;5011301;28;20044;-72
2023/05/26 02:11:29;;;;;;;10.75;3.58;;;;;;;20.28;40.87;102837.34;5018858;28;20057;-71
2023/05/26 02:13:54;;;;;;;9.40;3.30;;;;;;;20.29;41.00;102845.22;5017633;28;20466;-71
2023/05/26 02:16:21;;;;;;;6.95;2.38;;;;;;;20.29;40.89;102839.06;5007862;28;20053;-70
2023/05/26 02:18:47;;;;;;;9.00;2.47;;;;;;;20.25;40.80;102834.88;5011581;28;20034;-71
2023/05/26 02:21:13;;;;;;;8.15;2.33;;;;;;;20.28;40.81;102842.66;5006751;28;20045;-71
2023/05/26 02:23:39;;;;;;;7.95;2.80;;;;;;;20.26;40.89;102847.19;5002347;28;20033;-70
2023/05/26 02:26:04;;;;;;;12.18;3.10;;;;;;;20.26;40.85;102848.03;5002162;28;20037;-71
2023/05/26 02:28:29;;;;;;;9.23;2.95;;;;;;;20.25;40.80;102851.66;5002036;28;20097;-71
2023/05/26 02:30:55;;;;;;;10.05;2.75;;;;;;;20.26;40.68;102855.13;5007381;28;20029;-71
2023/05/26 02:33:20;;;;;;;9.13;3.03;;;;;;;20.23;40.73;102848.22;5012938;28;20115;-70
2023/05/26 02:35:45;;;;;;;9.75;3.38;;;;;;;20.26;40.97;102855.13;5021485;28;20095;-70
2023/05/26 02:38:11;;;;;;;10.30;2.60;;;;;;;20.23;40.44;102850.03;5015124;28;20037;-71
2023/05/26 02:40:36;;;;;;;9.15;2.58;;;;;;;20.24;40.83;102851.75;5016435;28;20037;-70
2023/05/26 02:43:01;;;;;;;9.93;2.73;;;;;;;20.25;40.64;102854.28;5010066;28;20034;-70
2023/05/26 02:45:27;;;;;;;12.88;3.35;;;;;;;20.23;40.61;102848.22;5020684;28;20623;-72
2023/05/26 02:47:52;;;;;;;10.18;2.60;;;;;;;20.23;40.79;102844.72;5015806;28;20393;-71
2023/05/26 02:50:18;;;;;;;12.47;3.70;;;;;;;20.22;40.73;102841.25;5018359;28;20116;-71
2023/05/26 02:52:44;;;;;;;10.35;2.78;;;;;;;20.23;40.58;102845.56;5001750;28;20272;-71
2023/05/26 02:55:11;;;;;;;9.60;2.88;;;;;;;20.22;40.59;102843.88;5002185;28;20371;-70
2023/05/26 02:57:37;;;;;;;9.65;2.85;;;;;;;20.21;40.69;102843.97;5001537;28;20036;-69
2023/05/26 03:00:07;;;;;;;8.45;2.83;;;;;;;20.22;40.34;102850.94;5009492;28;20038;-70
2023/05/26 03:02:32;;;;;;;9.20;2.88;;;;;;;20.20;40.48;102851.06;5003804;28;20119;-71
2023/05/26 03:04:58;;;;;;;9.32;2.58;;;;;;;20.20;40.50;102851.06;5012161;28;20491;-71
2023/05/26 03:07:24;;;;;;;9.80;2.70;;;;;;;20.21;40.82;102858.06;5013753;28;20033;-70
2023/05/26 03:09:49;;;;;;;11.55;3.22;;;;;;;20.19;40.45;102843.22;5014991;28;20521;-71
2023/05/26 03:12:15;;;;;;;8.73;2.85;;;;;;;20.19;40.49;102852.00;5002109;28;20068;-70
2023/05/26 03:14:41;;;;;;;10.00;2.95;;;;;;;20.19;40.33;102846.72;5031142;28;20885;-70
2023/05/26 03:17:06;;;;;;;7.80;2.78;;;;;;;20.19;40.34;102854.66;5017104;28;20133;-70
2023/05/26 03:19:31;;;;;;;9.07;2.85;;;;;;;20.15;40.47;102842.53;5006759;28;20049;-71
2023/05/26 03:21:56;;;;;;;11.68;3.28;;;;;;;20.19;40.32;102856.47;5008220;28;20091;-71
2023/05/26 03:24:22;;;;;;;10.07;2.85;;;;;;;20.16;40.33;102859.28;5001353;28;20058;-71
2023/05/26 03:26:47;;;;;;;9.18;2.70;;;;;;;20.15;40.58;102860.22;5001311;28;20109;-71
2023/05/26 03:29:12;;;;;;;11.07;2.97;;;;;;;20.15;40.36;102863.69;5001508;28;20154;-71
2023/05/26 03:31:38;;;;;;;10.43;2.85;;;;;;;20.17;40.61;102866.25;5016674;28;20366;-71
2023/05/26 03:34:03;;;;;;;10.05;2.88;;;;;;;20.16;40.31;102870.72;5009493;28;20037;-70
2023/05/26 03:36:28;;;;;;;9.30;2.60;;;;;;;20.14;40.25;102869.97;5004786;28;20038;-71
2023/05/26 03:38:53;;;;;;;9.60;2.80;;;;;;;20.14;40.15;102869.09;5014216;28;20384;-70
2023/05/26 03:41:19;;;;;;;8.47;2.33;;;;;;;20.10;40.26;102869.25;5018203;28;20644;-70
2023/05/26 03:43:44;;;;;;;10.77;2.83;;;;;;;20.15;40.28;102873.44;5004080;28;20271;-69
2023/05/26 03:46:09;;;;;;;6.85;2.60;;;;;;;20.14;40.18;102882.31;5016676;28;21259;-70
2023/05/26 03:48:35;;;;;;;10.60;2.47;;;;;;;20.11;40.25;102883.38;5005319;28;20466;-71
2023/05/26 03:51:00;;;;;;;9.70;2.92;;;;;;;20.12;40.18;102887.69;5016134;28;20131;-71
2023/05/26 03:53:26;;;;;;;9.55;2.95;;;;;;;20.11;40.29;102883.38;5008093;28;20065;-71
2023/05/26 03:55:51;;;;;;;10.82;2.67;;;;;;;20.10;40.17;102879.84;5019960;28;20557;-71
2023/05/26 03:58:16;;;;;;;9.88;2.75;;;;;;;20.09;40.46;102882.59;5019793;28;20085;-70
2023/05/26 04:00:42;;;;;;;10.35;2.63;;;;;;;20.08;40.61;102879.09;5011567;28;20124;-71
2023/05/26 04:03:07;;;;;;;10.30;2.88;;;;;;;20.11;40.18;102886.03;5017166;28;20048;-71
2023/05/26 04:05:32;;;;;;;10.07;2.72;;;;;;;20.08;40.25;102878.25;5021391;28;20525;-71
2023/05/26 04:07:57;;;;;;;9.73;3.33;;;;;;;20.08;40.13;102875.59;5024282;28;20048;-71
2023/05/26 04:10:23;;;;;;;10.03;3.27;;;;;;;20.09;40.27;102878.16;5020601;28;20488;-70
2023/05/26 04:12:48;;;;;;;10.13;2.60;;;;;;;20.06;40.12;102873.03;5022763;28;20266;-71
2023/05/26 04:15:13;;;;;;;10.43;3.00;;;;;;;20.07;40.08;102880.03;5023167;28;20188;-71
2023/05/26 04:17:39;;;;;;;11.40;2.50;;;;;;;20.06;39.98;102881.00;5011068;28;20298;-71
2023/05/26 04:20:06;;;;;;;10.65;2.85;;;;;;;20.06;40.27;102880.13;5004459;28;20548;-71
2023/05/26 04:22:32;;;;;;;9.98;2.75;;;;;;;20.05;40.14;102883.72;5015352;28;20771;-72
2023/05/26 04:24:57;;;;;;;11.48;3.00;;;;;;;20.06;40.19;102888.06;5007379;28;20030;-71
2023/05/26 04:27:24;;;;;;;10.63;3.05;;;;;;;20.07;40.07;102890.59;5018892;28;20038;-70
2023/05/26 04:29:50;;;;;;;8.05;2.55;;;;;;;20.04;39.95;102882.00;5010435;28;20030;-70
2023/05/26 04:32:16;;;;;;;8.85;2.55;;;;;;;20.06;39.94;102893.34;5024246;28;20026;-71
2023/05/26 04:34:44;;;;;;;9.45;2.70;;;;;;;20.05;40.08;102896.94;5023699;28;20067;-71
2023/05/26 04:37:09;;;;;;;11.23;2.80;;;;;;;19.99;40.00;102881.41;5020439;28;20041;-70
2023/05/26 04:39:35;;;;;;;12.30;2.72;;;;;;;20.03;40.09;102896.19;5006340;28;21156;-70
2023/05/26 04:42:02;;;;;;;9.80;2.88;;;;;;;20.04;40.10;102905.81;5020024;28;20025;-70
2023/05/26 04:44:28;;;;;;;10.27;2.80;;;;;;;20.01;39.91;102893.63;5014835;28;20033;-72
2023/05/26 04:46:54;;;;;;;10.45;3.25;;;;;;;20.04;39.87;102897.88;5023871;28;20060;-71
2023/05/26 04:49:22;;;;;;;9.13;2.75;;;;;;;20.02;40.02;102899.78;5005722;28;20040;-70
2023/05/26 04:51:54;;;;;;;9.18;2.88;;;;;;;20.03;40.06;102896.19;5018942;28;20033;-70
2023/05/26 04:54:20;;;;;;;10.40;2.95;;;;;;;20.00;39.95;102901.66;5016237;28;20045;-71
2023/05/26 04:56:45;;;;;;;13.15;2.78;;;;;;;20.01;39.91;102903.34;5002961;28;20022;-71
2023/05/26 04:59:11;;;;;;;9.43;2.95;;;;;;;20.00;40.22;102910.44;5005682;28;20113;-70
2023/05/26 05:01:37;;;;;;;8.30;3.85;;;;;;;19.99;39.98;102905.25;5020959;28;20052;-70
2023/05/26 05:04:02;;;;;;;8.90;2.90;;;;;;;20.00;40.15;102907.81;5005602;28;20080;-71
2023/05/26 05:06:27;;;;;;;9.80;2.90;;;;;;;20.00;40.04;102914.91;5003647;28;20033;-71
2023/05/26 05:08:53;;;;;;;7.53;2.83;;;;;;;20.01;39.89;102912.16;5003659;28;20263;-70
2023/05/26 05:11:18;;;;;;;9.30;2.50;;;;;;;20.01;40.25;102914.81;5010231;28;20045;-71
2023/05/26 05:13:43;;;;;;;7.10;2.70;;;;;;;19.98;40.18;102903.53;5015242;28;20048;-69
2023/05/26 05:16:09;;;;;;;11.73;2.90;;;;;;;20.01;40.20;102912.16;5023218;28;20049;-70
2023/05/26 05:18:34;;;;;;;9.40;3.30;;;;;;;19.98;39.98;102912.34;5022859;28;20345;-69
2023/05/26 05:21:00;;;;;;;8.23;2.80;;;;;;;19.97;39.81;102912.41;5017699;28;20144;-70
2023/05/26 05:23:25;;;;;;;11.10;2.88;;;;;;;19.97;39.91;102913.25;5014422;28;20069;-70
2023/05/26 05:25:50;;;;;;;9.63;2.97;;;;;;;20.00;40.28;102920.19;5005200;28;20025;-70
2023/05/26 05:28:15;;;;;;;11.43;3.17;;;;;;;19.97;40.20;102918.56;5019165;28;20378;-70
2023/05/26 05:30:41;;;;;;;7.93;2.53;;;;;;;19.98;40.02;102920.28;5022690;28;20068;-70
2023/05/26 05:33:06;;;;;;;9.38;2.60;;;;;;;19.96;40.41;102913.34;5022757;28;20099;-70
2023/05/26 05:35:31;;;;;;;7.88;2.45;;;;;;;19.97;40.38;102929.16;5007679;28;20555;-70
2023/05/26 05:37:57;;;;;;;9.47;2.87;;;;;;;19.95;40.39;102928.38;5022899;28;20366;-71
2023/05/26 05:40:22;;;;;;;9.82;2.78;;;;;;;19.95;40.32;102920.44;5022124;28;20370;-70
2023/05/26 05:42:48;;;;;;;9.15;2.42;;;;;;;19.94;40.54;102927.50;5022861;28;20531;-70
2023/05/26 05:45:13;;;;;;;8.13;2.67;;;;;;;19.94;40.71;102927.50;5005165;28;20041;-69
2023/05/26 05:47:38;;;;;;;10.60;2.63;;;;;;;19.94;40.68;102926.66;5019778;28;20112;-70
2023/05/26 05:50:04;;;;;;;7.63;2.42;;;;;;;19.93;40.63;102923.19;5008040;28;20037;-70
2023/05/26 05:52:30;;;;;;;8.30;2.72;;;;;;;19.94;40.61;102932.81;5022574;28;20036;-69
2023/05/26 05:54:55;;;;;;;8.65;2.60;;;;;;;19.97;40.71;102936.25;5017700;28;20033;-69
2023/05/26 05:57:20;;;;;;;8.88;2.60;;;;;;;19.95;40.71;102933.69;5021178;28;20847;-70
2023/05/26 05:59:46;;;;;;;8.60;2.80;;;;;;;19.95;40.58;102938.97;5013504;28;20072;-70
2023/05/26 06:02:11;;;;;;;11.33;2.87;;;;;;;19.94;40.75;102935.44;5014154;28;20091;-71
2023/05/26 06:04:36;;;;;;;8.98;2.92;;;;;;;19.97;40.84;102946.81;5007642;28;20358;-70
2023/05/26 06:07:01;;;;;;;8.93;2.10;;;;;;;19.94;40.74;102937.25;5021673;28;20079;-70
2023/05/26 06:09:27;;;;;;;11.07;2.63;;;;;;;19.98;40.63;102951.16;5010455;28;20274;-70
2023/05/26 06:11:52;;;;;;;9.98;2.53;;;;;;;19.95;40.65;102949.56;5016552;28;20488;-70
2023/05/26 06:14:18;;;;;;;9.52;2.30;;;;;;;19.97;40.66;102954.75;5010872;28;20123;-69
2023/05/26 06:16:43;;;;;;;9.57;2.72;;;;;;;19.96;40.85;102956.53;5016540;28;20045;-69
2023/05/26 06:19:08;;;;;;;8.60;2.67;;;;;;;19.98;40.69;102957.31;5013290;28;20052;-71
2023/05/26 06:21:34;;;;;;;9.38;2.60;;;;;;;19.96;40.42;102947.75;5018433;28;20052;-70
2023/05/26 06:23:59;;;;;;;10.73;2.80;;;;;;;19.97;40.65;102960.06;5013704;28;20045;-71
2023/05/26 06:26:25;;;;;;;8.45;2.47;;;;;;;19.96;40.73;102961.00;5015335;28;20033;-72
2023/05/26 06:28:50;;;;;;;8.57;2.80;;;;;;;19.94;40.60;102953.97;5016107;28;20041;-70
2023/05/26 06:31:15;;;;;;;6.93;2.60;;;;;;;19.94;40.74;102961.06;5008939;28;20204;-70
2023/05/26 06:33:41;;;;;;;9.38;2.53;;;;;;;19.97;40.94;102962.69;5014726;28;20104;-70
2023/05/26 06:36:07;;;;;;;8.93;2.30;;;;;;;19.94;40.73;102955.78;5013780;28;20044;-71
2023/05/26 06:38:32;;;;;;;11.00;2.80;;;;;;;19.91;40.69;102943.56;5006896;28;20123;-70
2023/05/26 06:40:57;;;;;;;9.07;2.70;;;;;;;19.91;40.89;102948.84;5012018;28;20116;-71
2023/05/26 06:43:23;;;;;;;7.82;2.70;;;;;;;19.97;40.60;102954.75;5015107;28;20029;-71
2023/05/26 06:45:48;;;;;;;9.57;2.50;;;;;;;19.98;40.67;102951.16;5014639;28;20036;-72
2023/05/26 06:48:13;;;;;;;9.73;2.70;;;;;;;20.05;40.73;102960.47;5014164;28;20133;-71
2023/05/26 06:50:38;;;;;;;8.98;3.22;;;;;;;20.08;40.92;102961.16;5012739;28;20060;-74
2023/05/26 06:53:04;;;;;;;10.90;2.67;;;;;;;20.08;41.09;102953.22;5012108;28;20056;-74
2023/05/26 06:55:29;;;;;;;8.10;2.80;;;;;;;20.08;41.25;102958.50;5013132;28;20207;-75
2023/05/26 06:57:55;;;;;;;7.63;2.50;;;;;;;20.08;41.39;102957.66;5019715;28;20258;-70
2023/05/26 07:00:21;;;;;;;9.98;3.03;;;;;;;20.06;41.60;102960.38;5014448;28;20033;-74
2023/05/26 07:02:46;;;;;;;11.20;3.13;;;;;;;20.10;41.60;102963.72;5011667;28;20033;-73
2023/05/26 07:05:12;;;;;;;7.00;2.25;;;;;;;20.11;41.58;102960.97;5027581;28;20034;-73
2023/05/26 07:07:37;;;;;;;8.15;2.30;;;;;;;20.05;41.68;102963.13;5011979;28;20065;-73
2023/05/26 07:10:03;;;;;;;8.65;2.55;;;;;;;20.08;41.86;102963.78;5008367;28;20104;-73
2023/05/26 07:12:28;;;;;;;10.52;2.70;;;;;;;20.03;41.96;102954.44;5009510;28;20103;-73
2023/05/26 07:14:53;;;;;;;9.30;2.97;;;;;;;20.03;42.18;102960.56;5010309;28;20160;-74
2023/05/26 07:17:19;;;;;;;11.52;3.20;;;;;;;20.07;42.27;102962.06;5015324;28;20362;-73
2023/05/26 07:19:44;;;;;;;9.55;2.95;;;;;;;20.07;42.46;102962.06;5010667;28;20387;-74
2023/05/26 07:22:09;;;;;;;8.60;2.67;;;;;;;20.06;42.82;102960.38;5013089;28;20076;-73
2023/05/26 07:24:35;;;;;;;9.60;2.70;;;;;;;20.08;42.30;102953.22;5012882;28;20113;-76
2023/05/26 07:27:00;;;;;;;7.18;2.40;;;;;;;20.08;42.71;102958.50;5013548;28;20124;-73
2023/05/26 07:29:25;;;;;;;9.40;2.80;;;;;;;20.09;42.20;102954.94;5028838;28;20061;-74
2023/05/26 07:31:51;;;;;;;12.55;3.47;;;;;;;20.09;42.36;102962.00;5012106;28;20029;-75
2023/05/26 07:34:16;;;;;;;7.53;2.47;;;;;;;20.13;42.41;102962.69;5013353;28;20030;-73
2023/05/26 07:36:41;;;;;;;9.55;3.08;;;;;;;20.11;42.79;102965.44;5014079;28;20037;-74
2023/05/26 07:39:06;;;;;;;9.57;2.83;;;;;;;20.13;42.28;102965.34;5013691;28;20029;-75
2023/05/26 07:41:32;;;;;;;8.10;2.45;;;;;;;20.12;42.28;102956.53;5012552;28;20102;-73
2023/05/26 07:43:57;;;;;;;11.48;3.40;;;;;;;20.16;42.39;102968.66;5016900;28;20886;-73
2023/05/26 07:46:22;;;;;;;10.77;2.83;;;;;;;20.19;42.33;102965.84;5014979;28;20048;-72
2023/05/26 07:48:48;;;;;;;8.52;2.75;;;;;;;20.19;42.22;102965.00;5013146;28;20309;-73
2023/05/26 07:51:14;;;;;;;7.57;2.50;;;;;;;20.20;42.27;102969.34;5011992;28;20034;-72
2023/05/26 07:53:40;;;;;;;9.20;2.80;;;;;;;20.19;42.27;102965.84;5015432;28;20048;-74
2023/05/26 07:56:05;;;;;;;9.68;3.17;;;;;;;20.19;42.55;102970.28;5012446;28;20034;-73
2023/05/26 07:58:30;;;;;;;11.77;3.08;;;;;;;20.15;42.29;102969.59;5014863;28;20036;-70
2023/05/26 08:00:56;;;;;;;9.45;2.75;;;;;;;20.14;42.37;102969.69;5027866;28;20041;-75
2023/05/26 08:03:21;;;;;;;13.40;3.28;;;;;;;20.17;42.65;102974.81;5003192;28;20033;-65
2023/05/26 08:05:47;;;;;;;12.27;4.63;;;;;;;20.22;42.66;102970.97;5014577;28;20394;-66
2023/05/26 08:08:12;;;;;;;10.30;2.45;;;;;;;20.23;42.78;102972.66;5010084;28;20398;-69
2023/05/26 08:10:38;;;;;;;9.50;2.92;;;;;;;20.25;42.64;102968.16;5015271;28;20034;-68
2023/05/26 08:13:03;;;;;;;8.05;2.42;;;;;;;20.26;42.72;102963.69;5006840;28;20119;-70
2023/05/26 08:15:29;;;;;;;9.25;2.60;;;;;;;20.30;42.55;102970.53;5013096;28;20103;-69
2023/05/26 08:17:54;;;;;;;9.75;2.70;;;;;;;20.29;42.48;102969.66;5016802;28;20100;-69
2023/05/26 08:20:20;;;;;;;8.45;2.45;;;;;;;20.31;42.57;102969.56;5013220;28;20496;-69
2023/05/26 08:22:46;;;;;;;7.78;2.45;;;;;;;20.33;42.37;102972.13;5006676;28;20515;-69
2023/05/26 08:25:12;;;;;;;9.23;2.72;;;;;;;20.34;42.68;102968.56;5009929;28;20425;-68
2023/05/26 08:27:38;;;;;;;8.77;2.70;;;;;;;20.32;42.91;102958.03;5009966;28;20038;-68
2023/05/26 08:30:04;;;;;;;9.25;3.10;;;;;;;20.30;42.25;102957.28;5002268;28;20037;-68
2023/05/26 08:32:29;;;;;;;9.82;2.97;;;;;;;20.30;42.67;102962.59;5018508;28;20108;-69
2023/05/26 08:34:55;;;;;;;11.60;4.05;;;;;;;20.34;42.53;102972.03;5003715;28;20488;-68
2023/05/26 08:37:20;;;;;;;13.73;2.60;;;;;;;20.33;42.69;102964.19;5004835;28;20026;-68
2023/05/26 08:39:45;;;;;;;10.23;2.50;;;;;;;20.32;42.55;102960.69;5004858;28;20506;-68
2023/05/26 08:42:15;;;;;;;11.00;3.20;;;;;;;20.30;42.71;102965.25;5017555;28;20263;-69
2023/05/26 08:44:42;;;;;;;10.30;3.03;;;;;;;20.31;42.50;102964.28;5013559;28;20033;-67
2023/05/26 08:47:11;;;;;;;10.25;3.10;;;;;;;20.29;42.49;102955.56;5017155;28;20553;-67
2023/05/26 08:49:45;;;;;;;7.60;2.25;;;;;;;20.32;42.54;102960.69;5016478;28;20033;-71
2023/05/26 08:52:13;;;;;;;8.40;2.50;;;;;;;20.41;42.30;102962.81;5022693;28;20030;-69
2023/05/26 08:54:39;;;;;;;10.10;2.70;;;;;;;20.44;42.30;102956.47;5008508;28;20197;-71
2023/05/26 08:57:06;;;;;;;10.90;2.45;;;;;;;20.45;42.20;102963.50;5013224;28;20540;-69
2023/05/26 08:59:32;;;;;;;9.68;2.65;;;;;;;20.44;42.41;102960.00;5006565;28;20040;-72
2023/05/26 09:01:58;;;;;;;9.50;2.78;;;;;;;20.40;41.92;102954.97;5010843;28;20036;-69
2023/05/26 09:04:29;;;;;;;9.30;2.95;;;;;;;20.30;42.02;102944.06;5010979;28;20473;-69
2023/05/26 09:06:54;;;;;;;13.00;2.75;;;;;;;20.39;42.15;102967.31;5022514;28;20048;-71
2023/05/26 09:09:20;;;;;;;7.72;2.47;;;;;;;20.39;41.88;102959.38;5019741;28;21313;-72
2023/05/26 09:11:48;;;;;;;8.30;2.92;;;;;;;20.35;41.69;102952.56;5021220;28;20483;-72
2023/05/26 09:14:17;;;;;;;9.20;2.70;;;;;;;20.37;41.77;102955.13;5004802;28;20478;-70
2023/05/26 09:16:43;;;;;;;9.43;2.85;;;;;;;20.46;41.55;102965.22;5006449;28;20513;-69
2023/05/26 09:19:14;;;;;;;7.80;2.47;;;;;;;20.43;41.43;102957.44;5018483;28;20044;-71
2023/05/26 09:21:45;;;;;;;12.50;3.17;;;;;;;20.42;41.67;102967.16;5014475;28;20121;-69
2023/05/26 09:24:14;;;;;;;9.07;2.60;;;;;;;20.44;41.60;102960.00;5001312;28;20084;-68
2023/05/26 09:26:40;;;;;;;13.27;3.10;;;;;;;20.38;41.44;102962.16;5003352;28;20060;-69
2023/05/26 09:29:05;;;;;;;8.55;2.55;;;;;;;20.38;41.46;102963.00;5002632;28;20041;-70
2023/05/26 09:31:42;;;;;;;8.43;2.30;;;;;;;20.40;41.64;102961.09;5011643;28;20033;-69
2023/05/26 09:34:08;;;;;;;9.00;2.60;;;;;;;20.46;41.63;102970.50;5011860;28;20053;-66
2023/05/26 09:36:36;;;;;;;12.27;3.10;;;;;;;20.38;41.38;102965.66;5005507;28;20384;-67
2023/05/26 09:39:03;;;;;;;8.80;2.90;;;;;;;20.43;41.29;102968.88;5009602;28;20529;-68
2023/05/26 09:41:42;;;;;;;11.38;2.42;;;;;;;20.43;41.53;102971.53;5012234;28;20104;-68
2023/05/26 09:44:20;;;;;;;7.88;2.95;;;;;;;20.42;41.42;102972.44;5003324;28;20046;-70
2023/05/26 09:46:46;;;;;;;8.55;2.92;;;;;;;20.46;41.56;102967.84;5007515;28;20054;-68
2023/05/26 09:49:16;;;;;;;8.35;3.03;;;;;;;20.44;41.46;102965.28;5021637;28;20040;-70
2023/05/26 09:51:45;;;;;;;8.57;2.42;;;;;;;20.44;41.43;102959.13;5016166;28;20132;-70
2023/05/26 09:54:11;;;;;;;8.90;2.63;;;;;;;20.58;40.98;102960.97;5003817;28;20111;-69
2023/05/26 09:56:56;;;;;;;7.95;2.47;;;;;;;20.68;40.82;102961.31;5004765;28;20865;-68
2023/05/26 09:59:31;;;;;;;9.15;2.72;;;;;;;20.72;40.75;102949.59;5022047;28;20083;-68
2023/05/26 10:01:57;;;;;;;9.93;2.50;;;;;;;20.71;40.76;102950.53;5008217;28;20098;-68
2023/05/26 10:04:24;;;;;;;13.65;3.10;;;;;;;20.77;40.80;102960.78;5009150;28;20037;-68
2023/05/26 10:06:51;;;;;;;9.27;2.42;;;;;;;20.75;40.49;102944.97;5010798;28;20029;-69
2023/05/26 10:09:21;;;;;;;10.55;3.05;;;;;;;20.74;40.60;102947.72;5010941;28;20379;-68
2023/05/26 10:11:49;;;;;;;9.02;2.47;;;;;;;20.74;40.58;102951.19;5014322;28;20036;-67
2023/05/26 10:14:15;;;;;;;7.70;3.03;;;;;;;20.74;40.65;102958.31;5006041;28;20037;-67
2023/05/26 10:16:41;;;;;;;11.68;2.80;;;;;;;20.65;40.55;102943.81;5001974;28;20054;-70
2023/05/26 10:19:07;;;;;;;10.70;2.85;;;;;;;20.57;40.96;102953.97;5012928;28;20034;-67
2023/05/26 10:21:39;;;;;;;8.77;2.35;;;;;;;20.52;40.83;102942.78;5007673;28;20042;-69
2023/05/26 10:24:17;;;;;;;7.70;2.80;;;;;;;20.52;40.78;102946.31;5007099;28;20581;-69
2023/05/26 10:26:58;;;;;;;12.68;2.67;;;;;;;20.54;40.91;102943.56;5010785;28;20582;-69
2023/05/26 10:29:49;;;;;;;11.75;2.70;;;;;;;20.52;40.95;102937.50;5021329;28;20620;-67
2023/05/26 10:32:56;;;;;;;9.30;2.17;;;;;;;20.52;40.94;102951.59;5014264;28;20045;-67
2023/05/26 10:35:31;;;;;;;8.52;2.72;;;;;;;20.59;40.94;102939.69;5006089;28;20036;-69
2023/05/26 10:38:16;;;;;;;11.73;2.53;;;;;;;20.66;40.72;102950.81;5010549;28;20037;-69
2023/05/26 10:40:44;;;;;;;8.60;2.50;;;;;;;20.67;40.85;102949.88;5011089;28;20053;-71
2023/05/26 10:43:22;;;;;;;9.18;2.45;;;;;;;20.63;41.25;102941.22;5005655;28;20034;-69
2023/05/26 10:45:57;;;;;;;9.15;2.17;;;;;;;20.60;41.15;102935.25;5002003;28;20042;-70
2023/05/26 10:48:46;;;;;;;10.18;2.85;;;;;;;20.58;41.19;102937.97;5015496;28;20042;-70
2023/05/26 10:51:16;;;;;;;9.98;2.33;;;;;;;20.58;40.83;102924.72;5009524;28;20053;-68
2023/05/26 10:53:42;;;;;;;15.15;2.55;;;;;;;20.62;40.84;102938.66;5006047;28;20491;-69
2023/05/26 10:56:11;;;;;;;11.23;2.80;;;;;;;20.59;41.05;102920.31;5013743;28;20163;-72
2023/05/26 10:58:47;;;;;;;13.30;2.58;;;;;;;20.54;41.14;102928.53;5020791;28;20116;-72
2023/05/26 11:01:32;;;;;;;8.40;2.42;;;;;;;20.56;40.97;102926.63;5013115;28;20083;-73
2023/05/26 11:04:08;;;;;;;9.13;2.08;;;;;;;20.56;41.06;102936.38;5021281;28;20033;-71
2023/05/26 11:06:40;;;;;;;9.13;2.45;;;;;;;20.58;41.14;102930.03;5021030;28;20038;-71
2023/05/26 11:09:10;;;;;;;12.82;2.50;;;;;;;20.59;40.82;102925.59;5020019;28;20033;-73
2023/05/26 11:11:39;;;;;;;9.98;2.42;;;;;;;20.58;40.85;102932.69;5021327;28;20036;-72
2023/05/26 11:14:09;;;;;;;11.10;2.63;;;;;;;20.54;40.94;102928.53;5011122;28;20057;-72
2023/05/26 11:16:40;;;;;;;6.95;2.70;;;;;;;20.48;41.05;102924.44;5006610;28;20513;-71
2023/05/26 11:19:07;;;;;;;8.63;2.22;;;;;;;20.45;40.99;102924.59;5016638;28;20025;-71
2023/05/26 11:21:34;;;;;;;11.98;2.58;;;;;;;20.45;41.06;102921.94;5004591;28;20026;-71